KCYS/CYS METAR and TAF weather

Enter ICAO airport designator
Station Type Date Time Source
KCYS METAR 2020/07/02 16:53 UTC NOAA

KCYS 021653Z 19012G17KT 10SM FU CLR 28/09 A3016 RMK AO2 SLP116 T02780089


Station Type Date Time Source
KCYS Decoded METAR 2020/07/02 16:53 UTC NOAA

CHEYENNE AIRPORT, WY, United States (KCYS) 41-09N 104-48W 1865M
Jul 02, 2020 - 12:53 PM EDT / 2020.07.02 1653 UTC
Wind: from the S (190 degrees) at 14 MPH (12 KT) gusting to 20 MPH (17 KT):0
Visibility: 10 mile(s):0
Sky conditions: clear
Weather: smoke
Temperature: 82.0 F (27.8 C)
Dew Point: 48.0 F (8.9 C)
Relative Humidity: 30%
Pressure (altimeter): 30.16 in. Hg (1021 hPa)
ob: KCYS 021653Z 19012G17KT 10SM FU CLR 28/09 A3016 RMK AO2 SLP116 T02780089
cycle: 17

Station Type Date Time Source
KCYS TAF 2020/07/02 18:24 UTC NOAA

TAF KCYS 021721Z 0218/0318 19012G18KT P6SM SKC
FM030100 19009KT P6SM SCT150
FM031000 28007KT P6SM SCT250

Example: see airport list